Impacts METAR Board INFO
IDs:

KCVG - Cincinnati Intl, KY, US

Updated at: 1920 UTC 16 Jan 2018
Potential Impact None Slight Moderate High
Time16/07Z 16/08Z 16/09Z 16/10Z 16/11Z 16/12Z 16/13Z 16/14Z 16/15Z 16/16Z 16/17Z 16/18Z 16/19Z
VIS10 10 8 8 10 10 7 8 8 10 10 10 10
CIG50 21 19 18 18 18 120 130 17 150 -- -- --
CoverOVCOVCOVCOVCOVCOVCOVCOVCOVCBKNFEWFEWFEW
FltCatVFRMVFRMVFRMVFRMVFRMVFRVFRVFRMVFRVFRVFRVFRVFR
WX-----SN-SN------------------
WDir290280320300300280290280290250250270250
WSpd11 9 8 10 8 10 9 9 11 8 11 9 8
WGst-- -- -- -- -- -- -- -- -- -- -- -- --
Raw hourly METARs
KCVG 160652Z 29011KT 10SM FEW019 FEW041 OVC050 M11/M14 A3041 RMK AO2 SNE45 SLP308 P0000 T11061139 $
KCVG 160752Z 28009KT 10SM OVC021 M11/M14 A3042 RMK AO2 SLP312 T11061139 $
KCVG 160852Z 32008KT 8SM -SN OVC019 M12/M14 A3043 RMK AO2 SNB0757 SLP318 P0000 60000 T11171144 51018 $
KCVG 160952Z 30010KT 8SM -SN OVC018 M12/M14 A3044 RMK AO2 SLP321 P0000 T11171144 $
KCVG 161052Z 30008KT 10SM OVC018 M13/M16 A3045 RMK AO2 SNE35 SLP324 THN SPTS INOVC P0000 T11281156 $
KCVG 161152Z COR 28010KT 10SM BKN018 BKN090 OVC110 M13/M17 A3046 RMK AO2 SLP328 4/003 931000 60000 70012 T11331167 11100 21133 53009 $
KCVG 161252Z COR 29009KT 7SM FEW020 SCT100 OVC120 M13/M17 A3048 RMK AO2 SLP334 T11331172
KCVG 161352Z 28009KT 8SM SCT110 OVC130 M14/M17 A3049 RMK AO2 SLP340 BINOVC N P0000 T11391172
KCVG 161452Z 29011KT 8SM FEW013 BKN017 OVC120 M14/M17 A3051 RMK AO2 SLP346 T11391172 51010
KCVG 161552Z 25008KT 220V290 10SM SCT019 BKN150 M14/M18 A3051 RMK AO2 SLP348 T11391178
KCVG 161652Z 25011KT 10SM FEW180 M14/M18 A3051 RMK AO2 SLP347 T11391183
KCVG 161752Z 27009KT 10SM FEW180 M13/M18 A3048 RMK AO2 SLP337 4/003 933004 T11331178 11133 21144 58010
KCVG 161852Z 25008KT 10SM FEW035 M13/M18 A3046 RMK AO2 SLP331 T11281178